Time;durP1;ratioP1;P1;durP2;ratioP2;P2;SDS_P1;SDS_P2;PMS_P1;PMS_P2;Temp;Humidity;BMP_temperature;BMP_pressure;BME280_temperature;BME280_humidity;BME280_pressure;Samples;Min_cycle;Max_cycle;Signal;HPM_P1;HPM_P2
2021/04/25 00:00:36;;;;;;;2.90;0.50;;;7.40;59.30;;;;;;5072415;28;20051;-71
2021/04/25 00:03:03;;;;;;;2.40;0.83;;;7.40;59.30;;;;;;5078688;28;20459;-71
2021/04/25 00:05:30;;;;;;;4.57;1.10;;;7.50;59.40;;;;;;5071267;28;20049;-72
2021/04/25 00:07:56;;;;;;;3.60;0.93;;;7.50;59.40;;;;;;5073677;28;20442;-72
2021/04/25 00:10:23;;;;;;;1.83;0.80;;;7.50;59.40;;;;;;5076780;28;20036;-72
2021/04/25 00:12:50;;;;;;;3.50;1.40;;;7.50;59.40;;;;;;5072988;28;20040;-72
2021/04/25 00:15:24;;;;;;;3.97;1.33;;;7.60;59.50;;;;;;5071957;28;20059;-72
2021/04/25 00:17:51;;;;;;;2.47;0.90;;;7.60;59.80;;;;;;5073210;28;20438;-72
2021/04/25 00:20:19;;;;;;;2.57;0.77;;;7.60;59.70;;;;;;5072080;28;20119;-72
2021/04/25 00:22:47;;;;;;;3.90;0.90;;;7.60;59.70;;;;;;5081701;28;20038;-72
2021/04/25 00:25:15;;;;;;;4.23;1.50;;;7.60;59.80;;;;;;5073481;28;20044;-72
2021/04/25 00:27:42;;;;;;;3.03;1.10;;;7.60;59.80;;;;;;5071603;28;20061;-70
2021/04/25 00:30:13;;;;;;;2.43;0.90;;;7.60;59.80;;;;;;5071670;28;20458;-70
2021/04/25 00:32:40;;;;;;;2.37;1.00;;;7.60;59.80;;;;;;5071500;28;20052;-70
2021/04/25 00:35:08;;;;;;;2.63;0.80;;;7.60;59.80;;;;;;5071681;28;20044;-70
2021/04/25 00:37:34;;;;;;;2.60;0.87;;;7.60;59.90;;;;;;5071210;28;20041;-70
2021/04/25 00:40:04;;;;;;;2.23;0.70;;;7.60;60.00;;;;;;5071242;28;20060;-70
2021/04/25 00:42:30;;;;;;;2.20;0.70;;;7.60;60.00;;;;;;5074098;28;20052;-70
2021/04/25 00:44:59;;;;;;;1.37;0.73;;;7.60;60.10;;;;;;5071531;28;20037;-70
2021/04/25 00:47:26;;;;;;;2.47;0.80;;;7.60;60.20;;;;;;5074765;28;20107;-71
2021/04/25 00:49:53;;;;;;;4.17;0.83;;;7.50;60.10;;;;;;5072385;28;20411;-70
2021/04/25 00:52:21;;;;;;;3.27;1.00;;;7.50;60.40;;;;;;5067220;28;20044;-70
2021/04/25 00:54:48;;;;;;;2.23;0.87;;;7.40;60.70;;;;;;5068063;28;20040;-70
2021/04/25 00:57:16;;;;;;;2.73;0.70;;;7.20;60.80;;;;;;5071797;28;20496;-70
2021/04/25 00:59:43;;;;;;;2.67;0.80;;;7.10;61.00;;;;;;5070904;28;20052;-70
2021/04/25 01:02:10;;;;;;;2.97;1.10;;;7.10;61.10;;;;;;5071677;28;20094;-70
2021/04/25 01:04:37;;;;;;;2.50;1.00;;;7.00;61.40;;;;;;5069055;28;20519;-70
2021/04/25 01:07:04;;;;;;;2.03;0.80;;;7.00;61.40;;;;;;5071809;28;20042;-70
2021/04/25 01:09:31;;;;;;;2.63;1.00;;;6.90;61.50;;;;;;5067929;28;20486;-70
2021/04/25 01:11:58;;;;;;;2.43;0.87;;;6.90;61.60;;;;;;5070523;28;20488;-70
2021/04/25 01:14:25;;;;;;;1.90;0.60;;;6.80;62.40;;;;;;5069429;28;20044;-70
2021/04/25 01:16:51;;;;;;;1.93;0.77;;;6.80;61.80;;;;;;5070617;28;20496;-70
2021/04/25 01:19:18;;;;;;;2.53;0.83;;;6.70;61.80;;;;;;5070593;28;20048;-70
2021/04/25 01:21:45;;;;;;;2.13;0.93;;;6.70;61.90;;;;;;5068925;28;20036;-70
2021/04/25 01:24:12;;;;;;;2.03;0.70;;;6.60;62.00;;;;;;5051510;28;20068;-70
2021/04/25 01:26:38;;;;;;;2.00;0.70;;;6.60;62.10;;;;;;5069630;28;20170;-70
2021/04/25 01:29:05;;;;;;;2.47;0.70;;;6.50;62.10;;;;;;5071706;28;20098;-70
2021/04/25 01:31:32;;;;;;;2.73;0.93;;;6.50;62.10;;;;;;5070148;28;20040;-70
2021/04/25 01:34:00;;;;;;;2.80;1.00;;;6.40;62.20;;;;;;5072004;28;20062;-70
2021/04/25 01:36:26;;;;;;;2.70;0.60;;;6.40;62.20;;;;;;5052927;28;20471;-71
2021/04/25 01:38:53;;;;;;;1.50;0.60;;;6.40;62.40;;;;;;5061380;28;20040;-70
2021/04/25 01:41:19;;;;;;;2.17;0.83;;;6.30;62.40;;;;;;5069806;28;20118;-70
2021/04/25 01:43:47;;;;;;;2.57;0.80;;;6.30;62.40;;;;;;5069581;28;20052;-70
2021/04/25 01:46:15;;;;;;;2.23;0.70;;;6.30;62.40;;;;;;5050504;28;20049;-70
2021/04/25 01:48:42;;;;;;;2.33;0.70;;;6.20;62.50;;;;;;5067944;28;20040;-70
2021/04/25 01:51:10;;;;;;;1.40;0.50;;;6.20;62.60;;;;;;5071875;28;20040;-70
2021/04/25 01:53:37;;;;;;;2.77;0.77;;;6.20;62.60;;;;;;5070399;28;20786;-70
2021/04/25 01:56:04;;;;;;;3.10;0.70;;;6.20;62.50;;;;;;5071063;28;20040;-70
2021/04/25 01:58:30;;;;;;;2.90;0.80;;;6.30;62.50;;;;;;5069910;28;20048;-70
2021/04/25 02:00:58;;;;;;;3.23;0.60;;;6.30;62.40;;;;;;5069872;28;20040;-70
2021/04/25 02:03:25;;;;;;;1.53;0.50;;;6.30;62.30;;;;;;5050222;28;20040;-70
2021/04/25 02:05:52;;;;;;;1.73;0.60;;;6.30;62.30;;;;;;5068994;28;20036;-70
2021/04/25 02:08:19;;;;;;;2.40;0.70;;;6.40;62.30;;;;;;5067687;28;20363;-70
2021/04/25 02:10:47;;;;;;;3.13;0.83;;;6.40;62.20;;;;;;5050554;28;20197;-70
2021/04/25 02:13:14;;;;;;;1.87;0.60;;;6.30;62.20;;;;;;5068699;28;20055;-70
2021/04/25 02:15:41;;;;;;;3.07;0.60;;;6.30;62.40;;;;;;5071196;28;20036;-70
2021/04/25 02:18:08;;;;;;;1.47;0.40;;;6.30;62.30;;;;;;5070947;28;20557;-70
2021/04/25 02:20:35;;;;;;;2.23;0.53;;;6.30;62.30;;;;;;5069268;28;20040;-70
2021/04/25 02:23:02;;;;;;;2.57;0.60;;;6.20;62.90;;;;;;5071200;28;20510;-70
2021/04/25 02:25:28;;;;;;;2.70;0.63;;;6.20;62.40;;;;;;5069321;28;20102;-70
2021/04/25 02:27:56;;;;;;;1.97;0.57;;;6.20;62.50;;;;;;5070546;28;20102;-70
2021/04/25 02:30:28;;;;;;;2.77;0.73;;;6.10;62.50;;;;;;5070799;28;20036;-70
2021/04/25 02:32:55;;;;;;;1.90;0.60;;;6.10;62.50;;;;;;5070870;28;20037;-70
2021/04/25 02:35:24;;;;;;;2.13;0.40;;;6.00;62.50;;;;;;5069211;28;20033;-70
2021/04/25 02:37:52;;;;;;;1.97;0.60;;;6.00;62.60;;;;;;5068999;28;20041;-70
2021/04/25 02:40:21;;;;;;;2.07;0.57;;;6.00;62.60;;;;;;5070726;28;20094;-70
2021/04/25 02:42:49;;;;;;;1.40;0.40;;;6.00;62.60;;;;;;5069813;28;20052;-70
2021/04/25 02:45:17;;;;;;;1.27;0.50;;;5.90;62.60;;;;;;5044025;28;20052;-70
2021/04/25 02:47:53;;;;;;;2.57;0.53;;;5.90;62.70;;;;;;5065072;28;20044;-70
2021/04/25 02:50:22;;;;;;;2.97;0.60;;;5.90;62.80;;;;;;5066105;28;20373;-70
2021/04/25 02:52:49;;;;;;;1.10;0.53;;;5.80;62.80;;;;;;5070834;28;20040;-72
2021/04/25 02:55:16;;;;;;;2.27;0.57;;;5.90;62.80;;;;;;5068833;28;20508;-71
2021/04/25 02:57:43;;;;;;;1.60;0.50;;;5.80;62.60;;;;;;5070619;28;20047;-71
2021/04/25 03:00:13;;;;;;;2.30;0.90;;;5.80;62.60;;;;;;5070149;28;20102;-71
2021/04/25 03:02:40;;;;;;;1.80;0.50;;;5.80;62.60;;;;;;5049595;28;20052;-71
2021/04/25 03:05:08;;;;;;;1.60;0.47;;;5.90;62.60;;;;;;5067882;28;20133;-70
2021/04/25 03:07:34;;;;;;;3.33;0.60;;;5.90;62.60;;;;;;5070400;28;20051;-70
2021/04/25 03:10:01;;;;;;;1.17;0.60;;;5.90;62.50;;;;;;5070208;28;20102;-70
2021/04/25 03:12:27;;;;;;;1.30;0.50;;;5.90;62.40;;;;;;5068356;28;20044;-69
2021/04/25 03:14:54;;;;;;;1.33;0.40;;;6.00;62.40;;;;;;5052210;28;20037;-69
2021/04/25 03:17:21;;;;;;;1.00;0.40;;;6.00;62.30;;;;;;5056671;28;20044;-70
2021/04/25 03:19:47;;;;;;;2.30;0.40;;;6.00;62.30;;;;;;5052362;28;20037;-70
2021/04/25 03:22:14;;;;;;;1.13;0.33;;;6.00;62.20;;;;;;5052783;28;20044;-70
2021/04/25 03:24:41;;;;;;;2.70;0.53;;;6.10;62.20;;;;;;5070363;28;20045;-70
2021/04/25 03:27:07;;;;;;;1.40;0.40;;;6.10;62.10;;;;;;5069526;28;20082;-70
2021/04/25 03:29:34;;;;;;;1.27;0.40;;;6.20;62.00;;;;;;5070614;28;20098;-70
2021/04/25 03:32:01;;;;;;;1.70;0.47;;;6.20;61.90;;;;;;5069784;28;20051;-70
2021/04/25 03:34:27;;;;;;;1.70;0.43;;;6.20;61.90;;;;;;5073106;28;20498;-70
2021/04/25 03:36:53;;;;;;;1.80;0.50;;;6.30;61.90;;;;;;5071559;28;20056;-70
2021/04/25 03:39:20;;;;;;;3.23;0.50;;;6.20;61.70;;;;;;5052446;28;20049;-70
2021/04/25 03:41:46;;;;;;;1.57;0.53;;;6.30;61.70;;;;;;5063128;28;20044;-70
2021/04/25 03:44:14;;;;;;;2.80;0.50;;;6.30;61.70;;;;;;5055936;28;20561;-70
2021/04/25 03:46:42;;;;;;;2.37;0.40;;;6.30;61.60;;;;;;5072078;28;20059;-70
2021/04/25 03:49:09;;;;;;;1.30;0.33;;;6.40;61.60;;;;;;5073371;28;20045;-72
2021/04/25 03:51:36;;;;;;;1.43;0.40;;;6.40;61.40;;;;;;5072797;28;20040;-72
2021/04/25 03:54:03;;;;;;;2.47;0.33;;;6.40;61.40;;;;;;5073402;28;20484;-72
2021/04/25 03:56:30;;;;;;;1.60;0.50;;;6.40;61.30;;;;;;5072809;28;20098;-71
2021/04/25 03:59:00;;;;;;;1.47;0.50;;;6.50;61.30;;;;;;5073198;28;20072;-71
2021/04/25 04:01:27;;;;;;;1.37;0.40;;;6.50;61.90;;;;;;5072255;28;20052;-71
2021/04/25 04:03:54;;;;;;;2.17;0.40;;;6.50;61.20;;;;;;5073412;28;20037;-71
2021/04/25 04:06:21;;;;;;;1.43;0.37;;;6.60;61.20;;;;;;5071948;28;20052;-71
2021/04/25 04:08:47;;;;;;;2.50;0.40;;;6.60;61.10;;;;;;5068879;28;20040;-72
2021/04/25 04:11:14;;;;;;;1.90;0.33;;;6.60;61.00;;;;;;5073092;28;20534;-71
2021/04/25 04:13:41;;;;;;;2.30;0.50;;;6.60;61.00;;;;;;5073091;28;20036;-71
2021/04/25 04:16:08;;;;;;;0.77;0.37;;;6.70;61.00;;;;;;5072481;28;20488;-71
2021/04/25 04:18:34;;;;;;;3.77;0.60;;;6.70;60.90;;;;;;5071079;28;20033;-70
2021/04/25 04:21:01;;;;;;;1.10;0.30;;;6.70;60.80;;;;;;5071413;28;20047;-70
2021/04/25 04:23:27;;;;;;;1.30;0.43;;;6.70;60.80;;;;;;5072138;28;20119;-70
2021/04/25 04:25:54;;;;;;;2.20;0.47;;;6.70;60.80;;;;;;5071255;28;20496;-69
2021/04/25 04:28:21;;;;;;;2.03;0.60;;;6.80;60.80;;;;;;5071856;28;20513;-69
2021/04/25 04:30:48;;;;;;;1.90;0.50;;;6.80;60.70;;;;;;5053064;28;20037;-70
2021/04/25 04:33:14;;;;;;;1.27;0.40;;;6.80;60.70;;;;;;5073296;28;20044;-69
2021/04/25 04:35:41;;;;;;;2.80;0.60;;;6.80;60.60;;;;;;5072382;28;20032;-71
2021/04/25 04:38:07;;;;;;;3.27;0.40;;;6.80;60.60;;;;;;5072437;28;20507;-71
2021/04/25 04:40:34;;;;;;;1.77;0.37;;;6.80;60.60;;;;;;5053180;28;20480;-72
2021/04/25 04:43:01;;;;;;;2.07;0.80;;;6.70;60.50;;;;;;5070896;28;20533;-71
2021/04/25 04:45:27;;;;;;;1.53;0.40;;;6.80;60.50;;;;;;5071576;28;20070;-71
2021/04/25 04:47:54;;;;;;;2.97;0.50;;;6.70;60.50;;;;;;5070438;28;20044;-72
2021/04/25 04:50:21;;;;;;;2.53;0.63;;;6.70;60.40;;;;;;5070700;28;20055;-71
2021/04/25 04:52:47;;;;;;;2.60;0.50;;;6.70;60.40;;;;;;5072220;28;20485;-72
2021/04/25 04:55:16;;;;;;;0.83;0.40;;;6.60;60.30;;;;;;5070566;28;20419;-72
2021/04/25 04:57:43;;;;;;;2.23;0.70;;;6.60;60.30;;;;;;5070486;28;20041;-72
2021/04/25 05:00:13;;;;;;;1.20;0.40;;;6.70;60.30;;;;;;5070400;28;20550;-71
2021/04/25 05:02:40;;;;;;;2.47;0.40;;;6.70;60.20;;;;;;5070767;28;20037;-70
2021/04/25 05:05:07;;;;;;;2.27;0.63;;;6.70;60.20;;;;;;5071365;28;20054;-70
2021/04/25 05:07:34;;;;;;;1.23;0.30;;;6.70;60.10;;;;;;5071805;28;20086;-70
2021/04/25 05:10:01;;;;;;;1.23;0.33;;;6.80;60.00;;;;;;5072208;28;20483;-70
2021/04/25 05:12:28;;;;;;;3.10;0.50;;;6.70;59.90;;;;;;5070086;28;20101;-69
2021/04/25 05:14:54;;;;;;;2.50;0.50;;;6.80;59.90;;;;;;5053968;28;20113;-70
2021/04/25 05:17:21;;;;;;;2.57;0.40;;;6.70;59.80;;;;;;5050973;28;20086;-70
2021/04/25 05:19:48;;;;;;;1.27;0.40;;;6.70;59.80;;;;;;5063565;28;20058;-70
2021/04/25 05:22:15;;;;;;;3.10;0.50;;;6.70;59.80;;;;;;5054177;28;20044;-70
2021/04/25 05:24:41;;;;;;;1.10;0.30;;;6.70;59.70;;;;;;5072018;28;20046;-70
2021/04/25 05:27:07;;;;;;;2.57;0.67;;;6.70;59.70;;;;;;5070780;28;20053;-70
2021/04/25 05:29:34;;;;;;;2.23;0.50;;;6.80;59.70;;;;;;5070573;28;20028;-69
2021/04/25 05:32:01;;;;;;;1.03;0.40;;;6.80;59.70;;;;;;5053476;28;20044;-70
2021/04/25 05:34:28;;;;;;;2.10;0.50;;;6.80;59.60;;;;;;5056318;28;20040;-69
2021/04/25 05:36:55;;;;;;;2.07;0.53;;;6.80;60.10;;;;;;5066480;28;20428;-69
2021/04/25 05:39:22;;;;;;;2.27;0.67;;;6.80;59.40;;;;;;5070546;28;20044;-70
2021/04/25 05:41:48;;;;;;;1.13;0.50;;;6.90;59.40;;;;;;5071535;28;20040;-70
2021/04/25 05:44:15;;;;;;;1.60;0.40;;;6.90;59.40;;;;;;5071352;28;20049;-70
2021/04/25 05:46:42;;;;;;;1.93;0.50;;;6.90;59.40;;;;;;5069895;28;20036;-70
2021/04/25 05:49:08;;;;;;;5.20;0.90;;;6.90;59.30;;;;;;5070337;28;20097;-72
2021/04/25 05:51:35;;;;;;;2.77;0.93;;;6.90;59.40;;;;;;5070179;28;20041;-72
2021/04/25 05:54:02;;;;;;;2.17;0.60;;;6.90;59.40;;;;;;5071278;28;20048;-72
2021/04/25 05:56:30;;;;;;;2.30;0.47;;;6.90;59.30;;;;;;5071265;28;20097;-72
2021/04/25 05:58:58;;;;;;;4.57;0.47;;;6.90;59.20;;;;;;5071429;28;20446;-72
2021/04/25 06:01:25;;;;;;;1.17;0.50;;;7.00;59.30;;;;;;5070121;28;20037;-72
2021/04/25 06:03:52;;;;;;;4.00;0.50;;;7.00;59.20;;;;;;5070114;28;20041;-72
2021/04/25 06:06:19;;;;;;;2.07;0.33;;;7.10;59.20;;;;;;5031220;28;20127;-72
2021/04/25 06:08:46;;;;;;;3.50;0.40;;;7.10;59.10;;;;;;5069075;28;20040;-72
2021/04/25 06:11:12;;;;;;;2.70;0.73;;;7.20;59.10;;;;;;5069949;28;20353;-72
2021/04/25 06:13:39;;;;;;;1.70;0.40;;;7.20;59.10;;;;;;5053385;28;20048;-72
2021/04/25 06:16:06;;;;;;;3.40;0.53;;;7.30;59.10;;;;;;5079086;28;20071;-72
2021/04/25 06:18:32;;;;;;;1.77;0.50;;;7.30;59.00;;;;;;5069662;28;20115;-72
2021/04/25 06:20:59;;;;;;;3.17;0.80;;;7.30;59.00;;;;;;5050475;28;20045;-72
2021/04/25 06:23:26;;;;;;;4.30;1.27;;;7.30;59.00;;;;;;5070004;28;20075;-72
2021/04/25 06:25:53;;;;;;;1.47;0.40;;;7.30;58.80;;;;;;5070920;28;20040;-72
2021/04/25 06:28:19;;;;;;;2.80;0.50;;;7.30;58.80;;;;;;5070722;28;20053;-72
2021/04/25 06:30:47;;;;;;;5.53;0.60;;;7.40;58.70;;;;;;5069425;28;20112;-72
2021/04/25 06:33:13;;;;;;;4.57;0.50;;;7.30;58.60;;;;;;5071339;28;20044;-72
2021/04/25 06:35:40;;;;;;;3.53;0.60;;;7.30;58.60;;;;;;5069164;28;20040;-72
2021/04/25 06:38:07;;;;;;;2.30;0.40;;;7.30;58.50;;;;;;5049929;28;20614;-72
2021/04/25 06:40:36;;;;;;;2.50;0.57;;;7.30;58.60;;;;;;5065016;28;20051;-72
2021/04/25 06:43:04;;;;;;;3.13;0.50;;;7.30;58.60;;;;;;5050073;28;20044;-72
2021/04/25 06:45:32;;;;;;;3.63;0.43;;;7.40;58.60;;;;;;5063860;28;20040;-72
2021/04/25 06:47:59;;;;;;;0.90;0.40;;;7.40;58.50;;;;;;5069441;28;20045;-72
2021/04/25 06:50:26;;;;;;;1.23;0.40;;;7.40;58.40;;;;;;5070083;28;20056;-73
2021/04/25 06:52:53;;;;;;;2.87;0.60;;;7.60;58.40;;;;;;5070445;28;20086;-72
2021/04/25 06:55:22;;;;;;;3.23;0.40;;;7.60;58.30;;;;;;5052723;28;20053;-73
2021/04/25 06:57:50;;;;;;;2.20;0.40;;;7.70;58.30;;;;;;5064979;28;20052;-72
2021/04/25 07:00:19;;;;;;;2.33;0.30;;;7.70;58.10;;;;;;5071222;28;20106;-71
2021/04/25 07:02:46;;;;;;;1.90;0.20;;;7.80;58.00;;;;;;5070456;28;20044;-70
2021/04/25 07:05:14;;;;;;;1.80;0.30;;;7.90;57.90;;;;;;5070470;28;20044;-70
2021/04/25 07:07:41;;;;;;;1.27;0.33;;;7.90;57.80;;;;;;5069398;28;20094;-70
2021/04/25 07:10:08;;;;;;;2.00;0.33;;;8.00;57.70;;;;;;5076477;28;20480;-70
2021/04/25 07:12:35;;;;;;;1.40;0.30;;;7.90;57.60;;;;;;5055411;28;20072;-70
2021/04/25 07:15:04;;;;;;;0.73;0.30;;;8.00;57.60;;;;;;5056565;28;20064;-71
2021/04/25 07:17:30;;;;;;;1.80;0.57;;;8.00;57.40;;;;;;5072500;28;20040;-71
2021/04/25 07:19:57;;;;;;;4.20;0.73;;;8.00;57.30;;;;;;5073487;28;20048;-72
2021/04/25 07:22:24;;;;;;;2.10;0.63;;;8.00;57.30;;;;;;5053604;28;20041;-73
2021/04/25 07:24:50;;;;;;;2.80;0.37;;;8.00;57.10;;;;;;5072699;28;20044;-73
2021/04/25 07:27:18;;;;;;;2.60;0.53;;;8.00;57.10;;;;;;5073239;28;20057;-72
2021/04/25 07:29:45;;;;;;;1.40;0.40;;;8.00;57.00;;;;;;5073049;28;20417;-72
2021/04/25 07:32:12;;;;;;;1.67;0.37;;;8.00;57.00;;;;;;5067355;28;20041;-72
2021/04/25 07:34:39;;;;;;;2.40;0.47;;;8.10;57.00;;;;;;5072066;28;20037;-72
2021/04/25 07:37:07;;;;;;;1.77;0.40;;;8.10;56.90;;;;;;5067006;28;20037;-72
2021/04/25 07:39:36;;;;;;;2.33;0.40;;;8.20;56.80;;;;;;5071848;28;20045;-70
2021/04/25 07:42:04;;;;;;;1.13;0.40;;;8.10;56.80;;;;;;5072761;28;20397;-70
2021/04/25 07:44:31;;;;;;;1.57;0.20;;;8.10;56.80;;;;;;5078754;28;20037;-70
2021/04/25 07:46:58;;;;;;;2.50;0.40;;;8.20;56.90;;;;;;5051213;28;20435;-70
2021/04/25 07:49:25;;;;;;;1.67;0.30;;;8.20;56.80;;;;;;5073285;28;20115;-70
2021/04/25 07:51:51;;;;;;;0.80;0.20;;;8.20;56.80;;;;;;5066345;28;20045;-70
2021/04/25 07:54:18;;;;;;;1.70;0.43;;;8.30;56.80;;;;;;5074679;28;20078;-70
2021/04/25 07:56:44;;;;;;;1.20;0.20;;;8.40;56.70;;;;;;5083226;28;20462;-70
2021/04/25 07:59:11;;;;;;;1.77;0.20;;;8.50;56.60;;;;;;5047251;28;20049;-71
2021/04/25 08:01:37;;;;;;;1.80;0.30;;;8.60;56.60;;;;;;5065441;28;20056;-70
2021/04/25 08:04:04;;;;;;;1.23;0.23;;;8.60;56.40;;;;;;5065222;28;20066;-70
2021/04/25 08:06:31;;;;;;;2.90;0.33;;;8.60;56.40;;;;;;5070228;28;20385;-71
2021/04/25 08:08:57;;;;;;;2.20;0.20;;;8.70;56.40;;;;;;5071928;28;20053;-70
2021/04/25 08:11:24;;;;;;;0.70;0.30;;;8.80;56.30;;;;;;5073510;28;20048;-71
2021/04/25 08:13:51;;;;;;;1.57;0.40;;;8.80;56.30;;;;;;5072437;28;20036;-71
2021/04/25 08:16:18;;;;;;;0.87;0.27;;;8.80;56.30;;;;;;5069232;28;20044;-72
2021/04/25 08:18:44;;;;;;;1.47;0.30;;;8.80;56.10;;;;;;5064735;28;20041;-73
2021/04/25 08:21:12;;;;;;;3.83;0.40;;;8.80;56.10;;;;;;5072718;28;20107;-73
2021/04/25 08:23:39;;;;;;;1.07;0.20;;;8.80;56.10;;;;;;5072260;28;20056;-73
2021/04/25 08:26:06;;;;;;;1.53;0.50;;;8.90;56.00;;;;;;5071786;28;20550;-73
2021/04/25 08:28:33;;;;;;;6.63;0.50;;;8.90;56.00;;;;;;5065913;28;20114;-73
2021/04/25 08:30:59;;;;;;;1.10;0.30;;;9.00;55.80;;;;;;5071065;28;20036;-73
2021/04/25 08:33:26;;;;;;;1.63;0.40;;;9.10;55.60;;;;;;5073415;28;20047;-72
2021/04/25 08:35:53;;;;;;;1.80;0.10;;;9.10;55.50;;;;;;5049365;28;20481;-73
2021/04/25 08:38:20;;;;;;;2.27;0.60;;;9.20;55.40;;;;;;5063016;28;20373;-73
2021/04/25 08:40:47;;;;;;;1.13;0.20;;;9.20;55.30;;;;;;5045541;28;20045;-73
2021/04/25 08:43:15;;;;;;;1.15;0.30;;;9.30;55.20;;;;;;5066494;28;20044;-72
2021/04/25 08:45:45;;;;;;;2.75;0.30;;;9.40;55.00;;;;;;5064833;28;20032;-71
2021/04/25 08:48:13;;;;;;;2.47;0.30;;;9.40;54.80;;;;;;5072746;28;20048;-72
2021/04/25 08:50:41;;;;;;;2.90;0.30;;;9.40;54.90;;;;;;5066336;28;20463;-72
2021/04/25 08:53:10;;;;;;;2.37;0.40;;;9.40;54.80;;;;;;5070696;28;20045;-72
2021/04/25 08:55:36;;;;;;;2.25;0.35;;;9.40;54.70;;;;;;5059990;28;20047;-71
2021/04/25 08:58:07;;;;;;;1.10;0.30;;;9.50;54.70;;;;;;5064077;28;20094;-73
2021/04/25 09:00:34;;;;;;;2.42;0.30;;;9.70;54.60;;;;;;5069391;28;20051;-72
2021/04/25 09:03:01;;;;;;;2.30;0.50;;;9.70;54.30;;;;;;5066394;28;20045;-72
2021/04/25 09:05:27;;;;;;;2.05;0.28;;;9.80;54.20;;;;;;5052074;28;20040;-71
2021/04/25 09:07:59;;;;;;;1.63;0.43;;;9.90;54.00;;;;;;5080785;28;20072;-71
2021/04/25 09:10:40;;;;;;;4.88;1.15;;;10.00;53.80;;;;;;5044874;28;20040;-70
2021/04/25 09:13:16;;;;;;;0.50;0.20;;;10.00;53.80;;;;;;5071133;28;20040;-71
2021/04/25 09:15:44;;;;;;;0.45;0.20;;;10.00;53.70;;;;;;5062520;28;20041;-72
2021/04/25 09:18:11;;;;;;;0.90;0.22;;;10.20;53.80;;;;;;5052802;28;20040;-72
2021/04/25 09:20:48;;;;;;;1.98;0.40;;;10.30;53.60;;;;;;5069486;28;20048;-71
2021/04/25 09:23:21;;;;;;;1.42;0.30;;;10.40;53.20;;;;;;5066669;28;20048;-75
2021/04/25 09:25:59;;;;;;;;;;;10.30;53.20;;;;;;5071909;28;20047;-74
2021/04/25 09:28:27;;;;;;;2.22;0.30;;;10.30;53.40;;;;;;5068492;28;20333;-74
2021/04/25 09:30:56;;;;;;;3.05;0.30;;;10.40;53.20;;;;;;5050163;28;20061;-75
2021/04/25 09:33:26;;;;;;;2.47;0.20;;;10.40;52.70;;;;;;5061532;28;20037;-74
2021/04/25 09:35:56;;;;;;;1.30;0.22;;;10.40;52.70;;;;;;5067374;28;20035;-75
2021/04/25 09:38:24;;;;;;;2.78;0.25;;;10.50;52.70;;;;;;5082592;28;20103;-74
2021/04/25 09:40:51;;;;;;;1.83;0.50;;;10.60;52.40;;;;;;5063226;28;20068;-74
2021/04/25 09:43:20;;;;;;;1.63;0.40;;;10.60;52.20;;;;;;5066758;28;20045;-74
2021/04/25 09:45:57;;;;;;;2.65;0.50;;;10.60;52.10;;;;;;5066731;28;20505;-74
2021/04/25 09:48:31;;;;;;;3.05;0.40;;;10.50;52.10;;;;;;5044538;28;20441;-75
2021/04/25 09:51:14;;;;;;;2.88;0.40;;;10.50;52.30;;;;;;5050967;28;20060;-74
2021/04/25 09:53:57;;;;;;;2.40;0.30;;;10.60;52.70;;;;;;5065970;28;20090;-74
2021/04/25 09:56:41;;;;;;;3.25;0.55;;;10.60;52.00;;;;;;5068034;28;20286;-72
2021/04/25 09:59:08;;;;;;;2.28;0.30;;;10.70;52.00;;;;;;5067815;28;20040;-73
2021/04/25 10:01:37;;;;;;;1.42;0.60;;;10.80;51.90;;;;;;5065524;28;20035;-74
2021/04/25 10:04:31;;;;;;;1.92;0.25;;;10.80;51.60;;;;;;5056240;28;20045;-74
2021/04/25 10:06:58;;;;;;;;;;;11.00;51.30;;;;;;5064060;28;20090;-74
2021/04/25 10:09:27;;;;;;;0.90;0.25;;;11.00;51.40;;;;;;5069450;28;19924;-75
2021/04/25 10:11:56;;;;;;;2.97;0.30;;;11.10;51.50;;;;;;5060007;28;20123;-74
2021/04/25 10:14:27;;;;;;;1.58;0.52;;;11.30;50.90;;;;;;5071459;28;20086;-74
2021/04/25 10:16:55;;;;;;;0.80;0.20;;;11.40;50.90;;;;;;5070966;28;20043;-73
2021/04/25 10:19:22;;;;;;;2.13;0.40;;;11.40;50.80;;;;;;5050260;28;20078;-73
2021/04/25 10:21:49;;;;;;;1.33;0.30;;;11.40;50.60;;;;;;5051714;28;20040;-73
2021/04/25 10:24:20;;;;;;;2.22;0.30;;;11.30;50.60;;;;;;5054339;28;20052;-74
2021/04/25 10:27:07;;;;;;;2.08;0.38;;;11.40;50.70;;;;;;5070328;28;20059;-74
2021/04/25 10:29:57;;;;;;;2.47;0.35;;;11.50;50.60;;;;;;5070887;28;20744;-74
2021/04/25 10:32:24;;;;;;;1.95;0.35;;;11.50;50.50;;;;;;5069075;28;20045;-74
2021/04/25 10:35:15;;;;;;;3.63;0.52;;;11.50;50.40;;;;;;5070022;28;20044;-74
2021/04/25 10:37:43;;;;;;;3.45;0.30;;;11.60;50.40;;;;;;5070086;28;20090;-73
2021/04/25 10:40:31;;;;;;;2.47;0.38;;;11.50;50.50;;;;;;5070059;28;20681;-73
2021/04/25 10:43:11;;;;;;;2.42;0.30;;;11.60;50.10;;;;;;5073094;28;20051;-73
2021/04/25 10:46:00;;;;;;;2.53;0.40;;;11.60;50.20;;;;;;5075418;28;20048;-74
2021/04/25 10:48:32;;;;;;;0.50;0.20;;;11.60;50.20;;;;;;5074049;28;20070;-74
2021/04/25 10:51:19;;;;;;;2.22;0.40;;;11.70;50.30;;;;;;5074238;28;20519;-74
2021/04/25 10:53:47;;;;;;;2.83;0.30;;;11.80;50.10;;;;;;5075478;28;20044;-74
2021/04/25 10:56:21;;;;;;;0.88;0.20;;;12.00;49.80;;;;;;5074870;28;20047;-74
2021/04/25 10:59:21;;;;;;;1.40;0.45;;;12.10;49.60;;;;;;5069207;28;20526;-74
2021/04/25 11:01:48;;;;;;;3.50;0.30;;;12.20;49.50;;;;;;5064235;28;20041;-75
2021/04/25 11:04:54;;;;;;;2.60;0.50;;;12.70;48.70;;;;;;5073080;28;20048;-74
2021/04/25 11:07:41;;;;;;;1.15;0.20;;;13.10;47.70;;;;;;5063808;28;20072;-74
2021/04/25 11:10:08;;;;;;;0.77;0.40;;;13.30;47.30;;;;;;5065164;28;20033;-74
2021/04/25 11:12:41;;;;;;;1.33;0.50;;;13.20;47.50;;;;;;5073043;28;20530;-75
2021/04/25 11:15:08;;;;;;;2.95;0.30;;;13.20;47.50;;;;;;5067335;28;20037;-74
2021/04/25 11:17:35;;;;;;;0.98;0.30;;;13.30;47.70;;;;;;5045319;28;20041;-73
2021/04/25 11:20:29;;;;;;;2.17;0.20;;;13.40;47.60;;;;;;5073746;28;20118;-76
2021/04/25 11:23:03;;;;;;;1.48;0.38;;;14.00;47.20;;;;;;5060765;28;20615;-74
2021/04/25 11:25:32;;;;;;;2.38;0.30;;;14.70;46.10;;;;;;5074434;28;20072;-75
2021/04/25 11:27:59;;;;;;;2.22;0.70;;;14.50;45.40;;;;;;5071710;28;20477;-79
2021/04/25 11:30:43;;;;;;;4.40;0.60;;;14.20;45.50;;;;;;5056690;28;20122;-74
2021/04/25 11:33:38;;;;;;;2.15;0.30;;;13.90;45.90;;;;;;5072872;28;20066;-74
2021/04/25 11:36:37;;;;;;;1.73;0.45;;;14.20;45.70;;;;;;5070918;28;20052;-75
2021/04/25 11:39:06;;;;;;;1.58;0.30;;;14.70;45.00;;;;;;5085466;28;20054;-74
2021/04/25 11:41:35;;;;;;;1.85;0.30;;;14.60;45.00;;;;;;5073070;28;20048;-74
2021/04/25 11:44:07;;;;;;;2.13;0.30;;;14.50;45.10;;;;;;5040284;28;20055;-74
2021/04/25 11:46:36;;;;;;;1.65;0.30;;;14.10;45.30;;;;;;5073266;28;20302;-73
2021/04/25 11:49:07;;;;;;;1.90;0.40;;;14.20;45.70;;;;;;5043243;28;20362;-74
2021/04/25 11:51:35;;;;;;;1.90;0.40;;;14.60;45.00;;;;;;5040268;28;20052;-73
2021/04/25 11:54:21;;;;;;;4.35;0.22;;;14.90;44.40;;;;;;5072542;28;20044;-73
2021/04/25 11:56:48;;;;;;;4.28;0.47;;;14.70;44.40;;;;;;5055676;28;20127;-74
2021/04/25 11:59:18;;;;;;;1.38;0.40;;;14.40;44.70;;;;;;5057279;28;20127;-75
2021/04/25 12:01:51;;;;;;;3.10;0.40;;;13.90;45.30;;;;;;5072042;28;20098;-75
2021/04/25 12:04:48;;;;;;;1.98;0.38;;;14.20;45.50;;;;;;5019519;28;20053;-72
2021/04/25 12:07:34;;;;;;;1.13;0.32;;;14.90;44.40;;;;;;5030643;28;20061;-72
2021/04/25 12:10:01;;;;;;;2.13;0.30;;;15.40;43.70;;;;;;5040438;28;20107;-71
2021/04/25 12:12:29;;;;;;;3.83;0.50;;;15.20;43.80;;;;;;5031426;28;20520;-71
2021/04/25 12:15:13;;;;;;;2.03;0.30;;;15.20;43.60;;;;;;5013641;28;20049;-71
2021/04/25 12:17:50;;;;;;;2.35;0.60;;;15.00;43.90;;;;;;5028859;28;20475;-72
2021/04/25 12:20:17;;;;;;;1.02;0.28;;;14.70;44.60;;;;;;5030881;28;20131;-72
2021/04/25 12:22:44;;;;;;;2.08;0.32;;;14.40;45.90;;;;;;5051505;28;20056;-72
2021/04/25 12:25:11;;;;;;;2.22;0.60;;;14.40;45.60;;;;;;5072920;28;20411;-73
2021/04/25 12:27:38;;;;;;;2.88;0.30;;;14.60;45.90;;;;;;5072859;28;20056;-72
2021/04/25 12:30:17;;;;;;;2.35;0.32;;;14.80;45.40;;;;;;5072540;28;20467;-73
2021/04/25 12:32:43;;;;;;;1.13;0.30;;;14.70;45.10;;;;;;5071937;28;20036;-72
2021/04/25 12:35:10;;;;;;;1.15;0.30;;;14.50;45.30;;;;;;5073417;28;20105;-72
2021/04/25 12:37:42;;;;;;;2.25;0.20;;;14.30;45.30;;;;;;5072250;28;20527;-73
2021/04/25 12:40:40;;;;;;;1.75;0.30;;;14.30;45.60;;;;;;5072054;28;20059;-72
2021/04/25 12:43:15;;;;;;;2.40;0.38;;;14.20;45.40;;;;;;5008644;28;20048;-73
2021/04/25 12:45:43;;;;;;;1.00;0.30;;;14.20;45.50;;;;;;5069111;28;20051;-73
2021/04/25 12:48:29;;;;;;;1.27;0.50;;;14.20;45.40;;;;;;5069760;28;20044;-72
2021/04/25 12:51:15;;;;;;;2.38;0.50;;;14.10;45.10;;;;;;5059727;28;20044;-72
2021/04/25 12:54:04;;;;;;;3.08;0.47;;;13.80;45.40;;;;;;5063192;28;20032;-73
2021/04/25 12:56:39;;;;;;;1.67;0.38;;;13.50;45.70;;;;;;5071222;28;20040;-73
2021/04/25 12:59:09;;;;;;;1.63;0.32;;;13.30;45.90;;;;;;5072981;28;20051;-74
2021/04/25 13:01:45;;;;;;;2.63;0.40;;;13.10;46.00;;;;;;5070216;28;20036;-72
2021/04/25 13:04:32;;;;;;;1.42;0.20;;;13.10;46.10;;;;;;5071039;28;20151;-72
2021/04/25 13:07:39;;;;;;;1.33;0.30;;;13.10;46.10;;;;;;5065311;28;20049;-72